sensor_id;sensor_type;location;lat;lon;timestamp;P1;durP1;ratioP1;P2;durP2;ratioP2
65150;SDS011;51918;51.856;0.150;2022-09-03T00:00:08;36.75;;;20.90;;
65150;SDS011;51918;51.856;0.150;2022-09-03T00:05:14;40.97;;;23.50;;
65150;SDS011;51918;51.856;0.150;2022-09-03T00:10:21;37.90;;;23.80;;
65150;SDS011;51918;51.856;0.150;2022-09-03T00:15:29;43.55;;;24.73;;
65150;SDS011;51918;51.856;0.150;2022-09-03T00:20:33;40.22;;;23.17;;
65150;SDS011;51918;51.856;0.150;2022-09-03T00:25:38;44.67;;;23.20;;
65150;SDS011;51918;51.856;0.150;2022-09-03T00:30:46;43.75;;;24.45;;
65150;SDS011;51918;51.856;0.150;2022-09-03T00:35:53;50.83;;;27.17;;
65150;SDS011;51918;51.856;0.150;2022-09-03T00:41:04;47.15;;;25.58;;
65150;SDS011;51918;51.856;0.150;2022-09-03T00:46:12;49.90;;;27.63;;
65150;SDS011;51918;51.856;0.150;2022-09-03T00:51:21;60.50;;;30.80;;
65150;SDS011;51918;51.856;0.150;2022-09-03T00:56:26;64.25;;;32.58;;
65150;SDS011;51918;51.856;0.150;2022-09-03T01:01:39;62.33;;;32.30;;
65150;SDS011;51918;51.856;0.150;2022-09-03T01:06:49;65.20;;;33.15;;
65150;SDS011;51918;51.856;0.150;2022-09-03T01:11:58;69.45;;;33.80;;
65150;SDS011;51918;51.856;0.150;2022-09-03T01:17:09;52.20;;;27.77;;
65150;SDS011;51918;51.856;0.150;2022-09-03T01:22:21;54.33;;;29.85;;
65150;SDS011;51918;51.856;0.150;2022-09-03T01:27:36;57.30;;;33.03;;
65150;SDS011;51918;51.856;0.150;2022-09-03T01:32:47;52.30;;;29.27;;
65150;SDS011;51918;51.856;0.150;2022-09-03T01:38:06;56.95;;;29.17;;
65150;SDS011;51918;51.856;0.150;2022-09-03T01:43:25;64.40;;;33.17;;
65150;SDS011;51918;51.856;0.150;2022-09-03T01:48:41;63.30;;;31.90;;
65150;SDS011;51918;51.856;0.150;2022-09-03T01:53:49;57.67;;;31.27;;
65150;SDS011;51918;51.856;0.150;2022-09-03T01:59:03;61.97;;;31.33;;
65150;SDS011;51918;51.856;0.150;2022-09-03T02:04:16;63.72;;;31.38;;
65150;SDS011;51918;51.856;0.150;2022-09-03T02:09:19;61.45;;;32.22;;
65150;SDS011;51918;51.856;0.150;2022-09-03T02:14:20;61.50;;;31.05;;
65150;SDS011;51918;51.856;0.150;2022-09-03T02:24:22;58.28;;;28.67;;
65150;SDS011;51918;51.856;0.150;2022-09-03T02:29:24;54.25;;;29.13;;
65150;SDS011;51918;51.856;0.150;2022-09-03T02:39:26;50.38;;;26.92;;
65150;SDS011;51918;51.856;0.150;2022-09-03T02:49:31;48.00;;;25.63;;
65150;SDS011;51918;51.856;0.150;2022-09-03T02:54:32;46.75;;;26.38;;
65150;SDS011;51918;51.856;0.150;2022-09-03T02:59:33;52.47;;;27.40;;
65150;SDS011;51918;51.856;0.150;2022-09-03T03:09:35;51.13;;;27.48;;
65150;SDS011;51918;51.856;0.150;2022-09-03T03:19:38;42.80;;;24.63;;
65150;SDS011;51918;51.856;0.150;2022-09-03T03:24:38;49.70;;;25.42;;
65150;SDS011;51918;51.856;0.150;2022-09-03T03:29:39;43.80;;;23.23;;
65150;SDS011;51918;51.856;0.150;2022-09-03T03:39:41;40.20;;;23.10;;
65150;SDS011;51918;51.856;0.150;2022-09-03T03:44:42;39.85;;;22.70;;
65150;SDS011;51918;51.856;0.150;2022-09-03T03:49:44;39.85;;;23.17;;
65150;SDS011;51918;51.856;0.150;2022-09-03T03:54:44;41.20;;;23.17;;
65150;SDS011;51918;51.856;0.150;2022-09-03T03:59:45;40.95;;;23.20;;
65150;SDS011;51918;51.856;0.150;2022-09-03T04:04:47;40.38;;;23.67;;
65150;SDS011;51918;51.856;0.150;2022-09-03T04:09:48;40.60;;;22.40;;
65150;SDS011;51918;51.856;0.150;2022-09-03T04:14:48;36.70;;;21.52;;
65150;SDS011;51918;51.856;0.150;2022-09-03T04:19:50;37.15;;;21.83;;
65150;SDS011;51918;51.856;0.150;2022-09-03T04:24:51;34.45;;;20.35;;
65150;SDS011;51918;51.856;0.150;2022-09-03T04:34:53;33.30;;;20.10;;
65150;SDS011;51918;51.856;0.150;2022-09-03T04:39:54;35.78;;;20.52;;
65150;SDS011;51918;51.856;0.150;2022-09-03T04:44:54;37.67;;;22.27;;
65150;SDS011;51918;51.856;0.150;2022-09-03T04:49:56;38.50;;;20.88;;
65150;SDS011;51918;51.856;0.150;2022-09-03T04:54:57;40.97;;;22.95;;
65150;SDS011;51918;51.856;0.150;2022-09-03T05:04:59;37.83;;;21.83;;
65150;SDS011;51918;51.856;0.150;2022-09-03T05:10:00;39.75;;;23.45;;
65150;SDS011;51918;51.856;0.150;2022-09-03T05:15:01;40.17;;;22.13;;
65150;SDS011;51918;51.856;0.150;2022-09-03T05:20:03;41.38;;;23.17;;
65150;SDS011;51918;51.856;0.150;2022-09-03T05:25:04;40.08;;;22.58;;
65150;SDS011;51918;51.856;0.150;2022-09-03T05:30:06;31.83;;;20.23;;
65150;SDS011;51918;51.856;0.150;2022-09-03T05:35:08;38.70;;;21.65;;
65150;SDS011;51918;51.856;0.150;2022-09-03T05:40:09;32.95;;;20.45;;
65150;SDS011;51918;51.856;0.150;2022-09-03T05:50:12;37.27;;;23.03;;
65150;SDS011;51918;51.856;0.150;2022-09-03T05:55:12;39.05;;;23.08;;
65150;SDS011;51918;51.856;0.150;2022-09-03T06:05:15;42.08;;;23.17;;
65150;SDS011;51918;51.856;0.150;2022-09-03T06:10:16;39.67;;;22.88;;
65150;SDS011;51918;51.856;0.150;2022-09-03T06:15:16;35.28;;;21.75;;
65150;SDS011;51918;51.856;0.150;2022-09-03T06:25:19;32.92;;;21.13;;
65150;SDS011;51918;51.856;0.150;2022-09-03T06:30:20;32.20;;;19.73;;
65150;SDS011;51918;51.856;0.150;2022-09-03T06:40:22;39.78;;;22.38;;
65150;SDS011;51918;51.856;0.150;2022-09-03T06:50:24;36.00;;;21.40;;
65150;SDS011;51918;51.856;0.150;2022-09-03T06:55:25;34.60;;;21.40;;
65150;SDS011;51918;51.856;0.150;2022-09-03T07:05:27;35.13;;;20.77;;
65150;SDS011;51918;51.856;0.150;2022-09-03T07:10:28;31.83;;;18.27;;
65150;SDS011;51918;51.856;0.150;2022-09-03T07:20:30;32.47;;;18.43;;
65150;SDS011;51918;51.856;0.150;2022-09-03T07:25:31;33.17;;;19.95;;
65150;SDS011;51918;51.856;0.150;2022-09-03T07:30:31;32.70;;;20.05;;
65150;SDS011;51918;51.856;0.150;2022-09-03T07:35:36;30.13;;;19.50;;
65150;SDS011;51918;51.856;0.150;2022-09-03T07:40:37;29.88;;;20.70;;
65150;SDS011;51918;51.856;0.150;2022-09-03T07:45:37;27.50;;;16.85;;
65150;SDS011;51918;51.856;0.150;2022-09-03T07:50:40;24.85;;;16.27;;
65150;SDS011;51918;51.856;0.150;2022-09-03T07:55:40;25.23;;;16.85;;
65150;SDS011;51918;51.856;0.150;2022-09-03T08:00:41;24.33;;;15.73;;
65150;SDS011;51918;51.856;0.150;2022-09-03T08:05:43;22.80;;;14.05;;
65150;SDS011;51918;51.856;0.150;2022-09-03T08:10:45;19.85;;;13.80;;
65150;SDS011;51918;51.856;0.150;2022-09-03T08:15:52;15.88;;;11.40;;
65150;SDS011;51918;51.856;0.150;2022-09-03T08:20:57;14.82;;;9.98;;
65150;SDS011;51918;51.856;0.150;2022-09-03T08:25:58;14.85;;;9.20;;
65150;SDS011;51918;51.856;0.150;2022-09-03T08:31:03;8.23;;;6.15;;
65150;SDS011;51918;51.856;0.150;2022-09-03T08:36:08;7.38;;;5.30;;
65150;SDS011;51918;51.856;0.150;2022-09-03T08:41:10;5.00;;;3.53;;
65150;SDS011;51918;51.856;0.150;2022-09-03T08:46:12;8.68;;;6.00;;
65150;SDS011;51918;51.856;0.150;2022-09-03T08:51:14;7.28;;;5.47;;
65150;SDS011;51918;51.856;0.150;2022-09-03T09:01:29;9.90;;;5.45;;
65150;SDS011;51918;51.856;0.150;2022-09-03T09:06:42;6.57;;;3.95;;
65150;SDS011;51918;51.856;0.150;2022-09-03T09:11:49;5.75;;;4.22;;
65150;SDS011;51918;51.856;0.150;2022-09-03T09:17:01;8.32;;;4.85;;
65150;SDS011;51918;51.856;0.150;2022-09-03T09:22:13;5.65;;;3.92;;
65150;SDS011;51918;51.856;0.150;2022-09-03T09:27:21;6.72;;;3.88;;
65150;SDS011;51918;51.856;0.150;2022-09-03T09:32:23;4.90;;;3.60;;
65150;SDS011;51918;51.856;0.150;2022-09-03T09:37:25;6.60;;;4.60;;
65150;SDS011;51918;51.856;0.150;2022-09-03T09:42:26;6.88;;;4.32;;
65150;SDS011;51918;51.856;0.150;2022-09-03T09:47:27;7.05;;;4.32;;
65150;SDS011;51918;51.856;0.150;2022-09-03T09:52:31;7.03;;;4.35;;
65150;SDS011;51918;51.856;0.150;2022-09-03T09:57:31;5.88;;;4.05;;
65150;SDS011;51918;51.856;0.150;2022-09-03T10:02:34;8.23;;;5.53;;
65150;SDS011;51918;51.856;0.150;2022-09-03T10:07:37;6.45;;;4.88;;
65150;SDS011;51918;51.856;0.150;2022-09-03T10:12:39;6.45;;;5.03;;
65150;SDS011;51918;51.856;0.150;2022-09-03T10:17:43;8.10;;;5.53;;
65150;SDS011;51918;51.856;0.150;2022-09-03T10:22:54;7.15;;;5.30;;
65150;SDS011;51918;51.856;0.150;2022-09-03T10:27:58;6.43;;;4.70;;
65150;SDS011;51918;51.856;0.150;2022-09-03T10:33:03;5.40;;;3.97;;
65150;SDS011;51918;51.856;0.150;2022-09-03T10:38:13;5.85;;;3.90;;
65150;SDS011;51918;51.856;0.150;2022-09-03T10:43:27;6.63;;;4.20;;
65150;SDS011;51918;51.856;0.150;2022-09-03T10:54:28;4.93;;;3.60;;
65150;SDS011;51918;51.856;0.150;2022-09-03T10:59:41;7.10;;;3.00;;
65150;SDS011;51918;51.856;0.150;2022-09-03T11:04:55;3.85;;;2.85;;
65150;SDS011;51918;51.856;0.150;2022-09-03T11:10:05;3.35;;;2.40;;
65150;SDS011;51918;51.856;0.150;2022-09-03T11:15:15;4.85;;;3.35;;
65150;SDS011;51918;51.856;0.150;2022-09-03T11:20:23;4.75;;;3.03;;
65150;SDS011;51918;51.856;0.150;2022-09-03T11:25:28;5.80;;;3.40;;
65150;SDS011;51918;51.856;0.150;2022-09-03T11:30:33;5.32;;;3.40;;
65150;SDS011;51918;51.856;0.150;2022-09-03T11:35:40;4.40;;;2.70;;
65150;SDS011;51918;51.856;0.150;2022-09-03T11:40:55;3.83;;;2.90;;
65150;SDS011;51918;51.856;0.150;2022-09-03T11:46:02;6.20;;;3.00;;
65150;SDS011;51918;51.856;0.150;2022-09-03T11:56:18;4.10;;;2.92;;
65150;SDS011;51918;51.856;0.150;2022-09-03T12:01:19;3.80;;;2.75;;
65150;SDS011;51918;51.856;0.150;2022-09-03T12:11:52;3.85;;;2.88;;
65150;SDS011;51918;51.856;0.150;2022-09-03T12:17:10;3.60;;;2.20;;
65150;SDS011;51918;51.856;0.150;2022-09-03T12:27:21;2.90;;;2.13;;
65150;SDS011;51918;51.856;0.150;2022-09-03T12:32:24;3.55;;;1.83;;
65150;SDS011;51918;51.856;0.150;2022-09-03T12:37:25;3.25;;;1.95;;
65150;SDS011;51918;51.856;0.150;2022-09-03T12:42:33;2.50;;;1.70;;
65150;SDS011;51918;51.856;0.150;2022-09-03T12:47:37;2.83;;;2.10;;
65150;SDS011;51918;51.856;0.150;2022-09-03T12:52:38;3.38;;;1.95;;
65150;SDS011;51918;51.856;0.150;2022-09-03T12:57:44;3.45;;;1.75;;
65150;SDS011;51918;51.856;0.150;2022-09-03T13:02:50;3.10;;;2.10;;
65150;SDS011;51918;51.856;0.150;2022-09-03T13:07:56;3.45;;;1.83;;
65150;SDS011;51918;51.856;0.150;2022-09-03T13:13:01;3.58;;;1.88;;
65150;SDS011;51918;51.856;0.150;2022-09-03T13:18:08;2.65;;;1.90;;
65150;SDS011;51918;51.856;0.150;2022-09-03T13:23:22;2.78;;;1.88;;
65150;SDS011;51918;51.856;0.150;2022-09-03T13:28:36;3.22;;;1.98;;
65150;SDS011;51918;51.856;0.150;2022-09-03T13:33:49;3.58;;;2.33;;
65150;SDS011;51918;51.856;0.150;2022-09-03T13:38:55;3.20;;;1.95;;
65150;SDS011;51918;51.856;0.150;2022-09-03T13:44:01;3.25;;;2.08;;
65150;SDS011;51918;51.856;0.150;2022-09-03T13:49:08;3.50;;;1.90;;
65150;SDS011;51918;51.856;0.150;2022-09-03T13:54:17;3.35;;;2.25;;
65150;SDS011;51918;51.856;0.150;2022-09-03T13:59:26;2.97;;;1.85;;
65150;SDS011;51918;51.856;0.150;2022-09-03T14:04:37;3.22;;;2.00;;
65150;SDS011;51918;51.856;0.150;2022-09-03T14:09:47;6.35;;;1.70;;
65150;SDS011;51918;51.856;0.150;2022-09-03T14:14:57;3.50;;;2.00;;
65150;SDS011;51918;51.856;0.150;2022-09-03T14:20:03;3.28;;;2.25;;
65150;SDS011;51918;51.856;0.150;2022-09-03T14:25:08;4.07;;;1.85;;
65150;SDS011;51918;51.856;0.150;2022-09-03T14:30:19;3.50;;;1.70;;
65150;SDS011;51918;51.856;0.150;2022-09-03T14:35:32;3.20;;;2.00;;
65150;SDS011;51918;51.856;0.150;2022-09-03T14:40:39;3.28;;;1.77;;
65150;SDS011;51918;51.856;0.150;2022-09-03T14:51:30;3.67;;;2.35;;
65150;SDS011;51918;51.856;0.150;2022-09-03T14:56:39;3.53;;;2.28;;
65150;SDS011;51918;51.856;0.150;2022-09-03T15:01:51;3.13;;;2.22;;
65150;SDS011;51918;51.856;0.150;2022-09-03T15:07:07;4.10;;;1.95;;
65150;SDS011;51918;51.856;0.150;2022-09-03T15:12:21;3.10;;;2.17;;
65150;SDS011;51918;51.856;0.150;2022-09-03T15:17:36;3.60;;;2.03;;
65150;SDS011;51918;51.856;0.150;2022-09-03T15:28:18;4.55;;;2.70;;
65150;SDS011;51918;51.856;0.150;2022-09-03T15:33:32;3.20;;;2.30;;
65150;SDS011;51918;51.856;0.150;2022-09-03T15:38:40;3.47;;;2.47;;
65150;SDS011;51918;51.856;0.150;2022-09-03T15:43:46;3.42;;;2.40;;
65150;SDS011;51918;51.856;0.150;2022-09-03T15:48:50;3.70;;;2.28;;
65150;SDS011;51918;51.856;0.150;2022-09-03T15:53:59;4.07;;;2.63;;
65150;SDS011;51918;51.856;0.150;2022-09-03T15:59:08;4.60;;;2.40;;
65150;SDS011;51918;51.856;0.150;2022-09-03T16:04:21;4.28;;;2.53;;
65150;SDS011;51918;51.856;0.150;2022-09-03T16:09:35;5.68;;;2.78;;
65150;SDS011;51918;51.856;0.150;2022-09-03T16:14:49;5.88;;;3.60;;
65150;SDS011;51918;51.856;0.150;2022-09-03T16:19:59;5.20;;;3.25;;
65150;SDS011;51918;51.856;0.150;2022-09-03T16:25:06;4.88;;;3.00;;
65150;SDS011;51918;51.856;0.150;2022-09-03T16:30:12;3.85;;;2.88;;
65150;SDS011;51918;51.856;0.150;2022-09-03T16:35:25;4.95;;;2.83;;
65150;SDS011;51918;51.856;0.150;2022-09-03T16:40:35;5.53;;;3.20;;
65150;SDS011;51918;51.856;0.150;2022-09-03T16:45:44;3.33;;;2.58;;
65150;SDS011;51918;51.856;0.150;2022-09-03T16:50:58;4.10;;;2.67;;
65150;SDS011;51918;51.856;0.150;2022-09-03T16:56:14;4.05;;;2.80;;
65150;SDS011;51918;51.856;0.150;2022-09-03T17:06:48;4.20;;;2.42;;
65150;SDS011;51918;51.856;0.150;2022-09-03T17:12:03;4.88;;;2.40;;
65150;SDS011;51918;51.856;0.150;2022-09-03T17:17:11;4.57;;;2.55;;
65150;SDS011;51918;51.856;0.150;2022-09-03T17:22:28;4.28;;;2.83;;
65150;SDS011;51918;51.856;0.150;2022-09-03T17:33:21;6.97;;;3.40;;
65150;SDS011;51918;51.856;0.150;2022-09-03T17:38:47;5.40;;;3.35;;
65150;SDS011;51918;51.856;0.150;2022-09-03T17:44:17;8.63;;;3.92;;
65150;SDS011;51918;51.856;0.150;2022-09-03T17:49:27;5.43;;;3.10;;
65150;SDS011;51918;51.856;0.150;2022-09-03T17:54:35;4.63;;;3.17;;
65150;SDS011;51918;51.856;0.150;2022-09-03T17:59:41;4.20;;;2.83;;
65150;SDS011;51918;51.856;0.150;2022-09-03T18:04:47;5.53;;;3.28;;
65150;SDS011;51918;51.856;0.150;2022-09-03T18:09:55;4.88;;;3.05;;
65150;SDS011;51918;51.856;0.150;2022-09-03T18:15:03;5.57;;;3.42;;
65150;SDS011;51918;51.856;0.150;2022-09-03T18:20:09;5.22;;;3.30;;
65150;SDS011;51918;51.856;0.150;2022-09-03T18:25:12;7.22;;;3.83;;
65150;SDS011;51918;51.856;0.150;2022-09-03T18:30:14;5.15;;;3.70;;
65150;SDS011;51918;51.856;0.150;2022-09-03T18:35:14;5.88;;;3.67;;
65150;SDS011;51918;51.856;0.150;2022-09-03T18:40:18;7.47;;;3.42;;
65150;SDS011;51918;51.856;0.150;2022-09-03T18:45:26;5.53;;;4.05;;
65150;SDS011;51918;51.856;0.150;2022-09-03T18:50:36;6.25;;;3.55;;
65150;SDS011;51918;51.856;0.150;2022-09-03T18:55:49;6.85;;;4.07;;
65150;SDS011;51918;51.856;0.150;2022-09-03T19:01:02;6.85;;;3.97;;
65150;SDS011;51918;51.856;0.150;2022-09-03T19:06:14;7.45;;;4.30;;
65150;SDS011;51918;51.856;0.150;2022-09-03T19:11:27;7.20;;;4.55;;
65150;SDS011;51918;51.856;0.150;2022-09-03T19:21:37;7.60;;;4.38;;
65150;SDS011;51918;51.856;0.150;2022-09-03T19:26:44;7.93;;;4.70;;
65150;SDS011;51918;51.856;0.150;2022-09-03T19:31:55;6.72;;;4.32;;
65150;SDS011;51918;51.856;0.150;2022-09-03T19:37:03;8.45;;;4.57;;
65150;SDS011;51918;51.856;0.150;2022-09-03T19:42:12;8.00;;;4.80;;
65150;SDS011;51918;51.856;0.150;2022-09-03T19:47:25;7.80;;;4.60;;
65150;SDS011;51918;51.856;0.150;2022-09-03T19:52:40;6.07;;;4.47;;
65150;SDS011;51918;51.856;0.150;2022-09-03T19:57:49;7.68;;;5.03;;
65150;SDS011;51918;51.856;0.150;2022-09-03T20:07:55;7.38;;;5.20;;
65150;SDS011;51918;51.856;0.150;2022-09-03T20:13:02;8.38;;;4.90;;
65150;SDS011;51918;51.856;0.150;2022-09-03T20:18:07;11.00;;;4.97;;
65150;SDS011;51918;51.856;0.150;2022-09-03T20:23:17;8.13;;;4.85;;
65150;SDS011;51918;51.856;0.150;2022-09-03T20:28:27;10.18;;;6.30;;
65150;SDS011;51918;51.856;0.150;2022-09-03T20:33:57;9.02;;;5.55;;
65150;SDS011;51918;51.856;0.150;2022-09-03T20:44:39;10.65;;;6.10;;
65150;SDS011;51918;51.856;0.150;2022-09-03T20:49:51;10.88;;;6.45;;
65150;SDS011;51918;51.856;0.150;2022-09-03T20:55:01;9.32;;;5.60;;
65150;SDS011;51918;51.856;0.150;2022-09-03T21:00:08;9.95;;;6.03;;
65150;SDS011;51918;51.856;0.150;2022-09-03T21:05:13;8.38;;;5.78;;
65150;SDS011;51918;51.856;0.150;2022-09-03T21:10:19;10.68;;;6.72;;
65150;SDS011;51918;51.856;0.150;2022-09-03T21:15:30;9.27;;;6.07;;
65150;SDS011;51918;51.856;0.150;2022-09-03T21:20:39;8.18;;;5.30;;
65150;SDS011;51918;51.856;0.150;2022-09-03T21:25:46;9.52;;;5.53;;
65150;SDS011;51918;51.856;0.150;2022-09-03T21:30:55;9.13;;;5.00;;
65150;SDS011;51918;51.856;0.150;2022-09-03T21:36:01;12.60;;;8.45;;
65150;SDS011;51918;51.856;0.150;2022-09-03T21:41:11;15.13;;;8.43;;
65150;SDS011;51918;51.856;0.150;2022-09-03T21:46:19;11.57;;;8.20;;
65150;SDS011;51918;51.856;0.150;2022-09-03T21:51:23;11.63;;;8.63;;
65150;SDS011;51918;51.856;0.150;2022-09-03T21:56:33;13.15;;;8.70;;
65150;SDS011;51918;51.856;0.150;2022-09-03T22:01:54;15.02;;;8.20;;
65150;SDS011;51918;51.856;0.150;2022-09-03T22:07:05;11.63;;;8.18;;
65150;SDS011;51918;51.856;0.150;2022-09-03T22:12:17;10.25;;;6.82;;
65150;SDS011;51918;51.856;0.150;2022-09-03T22:17:25;12.75;;;7.40;;
65150;SDS011;51918;51.856;0.150;2022-09-03T22:22:36;10.43;;;6.38;;
65150;SDS011;51918;51.856;0.150;2022-09-03T22:27:45;11.75;;;6.88;;
65150;SDS011;51918;51.856;0.150;2022-09-03T22:32:55;9.80;;;6.72;;
65150;SDS011;51918;51.856;0.150;2022-09-03T22:38:09;10.50;;;6.47;;
65150;SDS011;51918;51.856;0.150;2022-09-03T22:43:27;9.27;;;6.35;;
65150;SDS011;51918;51.856;0.150;2022-09-03T22:48:50;11.65;;;7.05;;
65150;SDS011;51918;51.856;0.150;2022-09-03T22:54:03;12.80;;;7.32;;
65150;SDS011;51918;51.856;0.150;2022-09-03T22:59:10;12.82;;;7.47;;
65150;SDS011;51918;51.856;0.150;2022-09-03T23:04:20;11.07;;;7.75;;
65150;SDS011;51918;51.856;0.150;2022-09-03T23:09:26;13.57;;;7.75;;
65150;SDS011;51918;51.856;0.150;2022-09-03T23:14:33;13.13;;;7.60;;
65150;SDS011;51918;51.856;0.150;2022-09-03T23:19:38;11.15;;;6.80;;
65150;SDS011;51918;51.856;0.150;2022-09-03T23:24:42;12.43;;;7.47;;
65150;SDS011;51918;51.856;0.150;2022-09-03T23:29:46;11.25;;;6.75;;
65150;SDS011;51918;51.856;0.150;2022-09-03T23:34:51;11.10;;;7.72;;
65150;SDS011;51918;51.856;0.150;2022-09-03T23:40:00;12.73;;;8.18;;
65150;SDS011;51918;51.856;0.150;2022-09-03T23:45:12;12.20;;;7.75;;
65150;SDS011;51918;51.856;0.150;2022-09-03T23:50:29;13.23;;;7.75;;
65150;SDS011;51918;51.856;0.150;2022-09-03T23:55:42;13.90;;;8.00;;
